createdAt,value
2024-05-09T00:01:55.430Z,0.63
2024-05-09T00:06:57.176Z,0.28
2024-05-09T00:12:01.868Z,0.40
2024-05-09T00:17:03.744Z,0.98
2024-05-09T00:22:05.612Z,0.25
2024-05-09T00:27:12.697Z,0.52
2024-05-09T00:32:15.077Z,0.43
2024-05-09T00:37:17.226Z,0.25
2024-05-09T00:42:21.744Z,0.35
2024-05-09T00:47:24.656Z,0.50
2024-05-09T00:52:26.735Z,0.50
2024-05-09T00:57:31.607Z,0.03
2024-05-09T01:02:33.646Z,0.20
2024-05-09T01:07:35.607Z,0.30
2024-05-09T01:12:40.072Z,0.25
2024-05-09T01:17:42.109Z,0.28
2024-05-09T01:22:44.239Z,0.20
2024-05-09T01:27:48.763Z,0.43
2024-05-09T01:32:50.765Z,0.43
2024-05-09T01:37:52.972Z,0.40
2024-05-09T01:42:57.417Z,0.50
2024-05-09T01:47:59.291Z,0.50
2024-05-09T01:53:01.432Z,0.40
2024-05-09T01:58:06.181Z,0.30
2024-05-09T02:03:08.766Z,0.40
2024-05-09T02:08:11.500Z,0.17
2024-05-09T02:13:16.632Z,0.30
2024-05-09T02:18:18.797Z,0.45
2024-05-09T02:23:20.954Z,0.08
2024-05-09T02:28:27.358Z,0.30
2024-05-09T02:33:29.310Z,0.40
2024-05-09T02:38:31.570Z,0.17
2024-05-09T02:43:36.142Z,0.80
2024-05-09T02:48:38.102Z,0.60
2024-05-09T02:53:40.102Z,0.45
2024-05-09T02:58:44.604Z,0.10
2024-05-09T03:03:50.883Z,0.35
2024-05-09T03:08:52.774Z,0.40
2024-05-09T03:13:59.033Z,0.13
2024-05-09T03:19:00.887Z,0.10
2024-05-09T03:24:02.624Z,0.57
2024-05-09T03:29:07.015Z,0.63
2024-05-09T03:34:08.894Z,0.52
2024-05-09T03:39:12.986Z,0.00
2024-05-09T03:44:17.506Z,0.70
2024-05-09T03:49:19.616Z,0.55
2024-05-09T03:54:22.314Z,0.20
2024-05-09T03:59:26.990Z,0.28
2024-05-09T04:09:30.984Z,0.35
2024-05-09T04:14:36.549Z,0.43
2024-05-09T04:19:39.593Z,0.35
2024-05-09T04:24:41.684Z,0.45
2024-05-09T04:29:46.657Z,0.98
2024-05-09T04:34:48.526Z,0.70
2024-05-09T04:39:50.652Z,0.85
2024-05-09T04:44:58.273Z,0.50
2024-05-09T04:50:00.488Z,0.50
2024-05-09T04:55:03.732Z,0.68
2024-05-09T05:00:14.952Z,0.65
2024-05-09T05:05:23.457Z,0.80
2024-05-09T05:10:33.220Z,0.60
2024-05-09T05:15:41.396Z,1.25
2024-05-09T05:20:43.705Z,0.60
2024-05-09T05:25:53.028Z,0.73
2024-05-09T05:30:57.835Z,0.30
2024-05-09T05:35:59.440Z,0.38
2024-05-09T05:41:01.588Z,0.88
2024-05-09T05:46:06.136Z,0.43
2024-05-09T05:51:08.267Z,0.65
2024-05-09T05:56:10.445Z,0.50
2024-05-09T06:01:14.945Z,0.50
2024-05-09T06:06:17.690Z,0.80
2024-05-09T06:11:19.795Z,0.75
2024-05-09T06:16:24.352Z,0.65
2024-05-09T06:21:26.210Z,0.70
2024-05-09T06:26:27.909Z,0.60
2024-05-09T06:31:32.407Z,0.75
2024-05-09T06:36:34.119Z,0.75
2024-05-09T06:41:36.795Z,1.15
2024-05-09T06:46:42.424Z,1.00
2024-05-09T06:51:44.558Z,0.90
2024-05-09T06:56:46.336Z,0.90
2024-05-09T07:01:50.755Z,0.80
2024-05-09T07:06:52.623Z,0.70
2024-05-09T07:11:54.733Z,0.80
2024-05-09T07:16:59.558Z,1.42
2024-05-09T07:27:29.775Z,1.00
2024-05-09T07:32:34.744Z,1.00
2024-05-09T07:37:36.730Z,0.95
2024-05-09T07:42:38.947Z,1.13
2024-05-09T07:49:13.632Z,1.30
2024-05-09T07:53:37.128Z,1.27
2024-05-09T07:58:33.254Z,1.15
2024-05-09T08:03:41.036Z,1.30
2024-05-09T08:08:42.962Z,1.77
2024-05-09T08:13:48.269Z,1.65
2024-05-09T08:18:52.942Z,1.75
2024-05-09T08:23:54.880Z,1.90
2024-05-09T08:28:56.626Z,1.58
2024-05-09T08:34:01.274Z,1.70
2024-05-09T08:39:03.160Z,2.00
2024-05-09T08:44:06.455Z,1.95
2024-05-09T08:54:13.032Z,1.70
2024-05-09T08:59:21.023Z,1.40
2024-05-09T09:04:27.338Z,2.10
2024-05-09T09:09:31.169Z,2.28
2024-05-09T09:14:32.974Z,1.60
2024-05-09T09:19:40.676Z,1.92
2024-05-09T09:24:43.353Z,2.10
2024-05-09T09:29:45.164Z,1.88
2024-05-09T09:34:51.935Z,1.38
2024-05-09T09:39:54.741Z,1.83
2024-05-09T09:45:04.416Z,1.85
2024-05-09T09:50:14.549Z,1.90
2024-05-09T09:55:19.246Z,2.00
2024-05-09T10:00:27.073Z,1.92
2024-05-09T10:05:38.482Z,2.00
2024-05-09T10:10:45.472Z,1.90
2024-05-09T10:16:10.666Z,1.73
2024-05-09T10:21:34.251Z,1.98
2024-05-09T10:26:37.120Z,1.60
2024-05-09T10:31:42.695Z,1.60
2024-05-09T10:36:48.788Z,1.70
2024-05-09T10:41:54.263Z,1.75
2024-05-09T10:46:57.063Z,1.70
2024-05-09T10:52:01.644Z,1.92
2024-05-09T10:57:03.505Z,1.60
2024-05-09T11:02:08.202Z,1.65
2024-05-09T11:07:16.250Z,1.80
2024-05-09T11:12:20.032Z,1.58
2024-05-09T11:17:23.269Z,1.65
2024-05-09T11:22:27.852Z,1.60
2024-05-09T11:27:29.737Z,2.00
2024-05-09T11:32:33.335Z,1.80
2024-05-09T11:37:43.062Z,1.63
2024-05-09T11:42:48.236Z,1.65
2024-05-09T11:47:52.629Z,1.70
2024-05-09T11:52:57.232Z,1.60
2024-05-09T11:58:03.710Z,1.70
2024-05-09T12:03:05.977Z,1.63
2024-05-09T12:08:11.652Z,1.80
2024-05-09T12:13:23.356Z,1.58
2024-05-09T12:18:25.255Z,1.88
2024-05-09T12:23:29.684Z,1.73
2024-05-09T12:28:31.577Z,1.50
2024-05-09T12:33:33.441Z,1.35
2024-05-09T12:38:37.972Z,1.83
2024-05-09T12:43:39.889Z,2.38
2024-05-09T12:48:42.217Z,1.20
2024-05-09T12:53:46.754Z,1.30
2024-05-09T12:58:48.561Z,1.63
2024-05-09T13:03:50.613Z,1.60
2024-05-09T13:08:55.150Z,1.45
2024-05-09T13:13:56.925Z,1.65
2024-05-09T13:18:58.813Z,1.65
2024-05-09T13:24:03.389Z,1.98
2024-05-09T13:29:05.236Z,1.80
2024-05-09T13:34:07.106Z,2.40
2024-05-09T13:39:14.200Z,2.08
2024-05-09T13:44:16.085Z,2.00
2024-05-09T13:49:18.460Z,2.00
2024-05-09T13:54:23.070Z,1.60
2024-05-09T13:59:24.833Z,1.67
2024-05-09T14:04:27.029Z,2.05
2024-05-09T14:09:31.954Z,2.20
2024-05-09T14:14:33.793Z,1.92
2024-05-09T14:19:35.558Z,1.83
2024-05-09T14:24:40.085Z,1.85
2024-05-09T14:29:41.846Z,1.73
2024-05-09T14:34:43.657Z,2.20
2024-05-09T14:39:48.723Z,2.00
2024-05-09T14:44:50.724Z,2.20
2024-05-09T14:49:53.339Z,1.85
2024-05-09T14:55:00.735Z,1.98
2024-05-09T15:00:05.043Z,1.65
2024-05-09T15:10:20.339Z,1.73
2024-05-09T15:15:25.686Z,1.83
2024-05-09T15:20:33.995Z,2.05
2024-05-09T15:25:40.712Z,1.25
2024-05-09T15:30:46.121Z,1.80
2024-05-09T15:35:48.797Z,1.60
2024-05-09T15:40:53.272Z,2.10
2024-05-09T15:45:55.223Z,1.50
2024-05-09T15:50:57.416Z,1.30
2024-05-09T15:56:02.045Z,1.50
2024-05-09T16:01:03.992Z,1.35
2024-05-09T16:06:06.005Z,1.48
2024-05-09T16:11:10.727Z,1.67
2024-05-09T16:16:12.909Z,1.70
2024-05-09T16:21:14.805Z,1.40
2024-05-09T16:26:19.303Z,1.20
2024-05-09T16:31:21.058Z,2.00
2024-05-09T16:36:23.002Z,1.92
2024-05-09T16:41:27.440Z,1.40
2024-05-09T16:46:29.432Z,1.20
2024-05-09T16:51:33.636Z,1.60
2024-05-09T16:56:38.230Z,1.45
2024-05-09T17:01:40.153Z,1.63
2024-05-09T17:06:42.182Z,1.42
2024-05-09T17:11:46.936Z,1.60
2024-05-09T17:18:01.150Z,1.70
2024-05-09T17:23:03.200Z,3.45
2024-05-09T17:28:08.611Z,1.30
2024-05-09T17:33:12.726Z,1.08
2024-05-09T17:38:15.355Z,1.35
2024-05-09T17:43:20.079Z,1.08
2024-05-09T17:48:22.862Z,1.35
2024-05-09T17:53:24.999Z,1.25
2024-05-09T17:58:30.041Z,1.40
2024-05-09T18:03:32.156Z,1.10
2024-05-09T18:08:33.975Z,1.33
2024-05-09T18:13:38.609Z,1.52
2024-05-09T18:18:40.825Z,1.48
2024-05-09T18:23:42.931Z,1.08
2024-05-09T18:28:47.616Z,1.30
2024-05-09T18:33:49.697Z,1.67
2024-05-09T18:38:52.408Z,1.70
2024-05-09T18:43:57.537Z,1.15
2024-05-09T19:27:05.401Z,0.47
2024-05-09T19:32:07.409Z,1.10
2024-05-09T19:37:09.371Z,0.52
2024-05-09T19:42:14.030Z,0.55
2024-05-09T19:47:16.164Z,0.63
2024-05-09T19:52:19.046Z,1.17
2024-05-09T19:57:23.577Z,1.05
2024-05-09T20:02:25.836Z,1.02
2024-05-09T20:07:27.644Z,0.95
2024-05-09T20:12:32.126Z,0.85
2024-05-09T20:17:34.131Z,1.05
2024-05-09T20:22:35.969Z,1.40
2024-05-09T20:27:40.614Z,0.93
2024-05-09T20:32:42.473Z,1.05
2024-05-09T20:37:44.299Z,1.52
2024-05-09T20:42:48.823Z,1.30
2024-05-09T20:47:50.605Z,1.75
2024-05-09T20:52:52.405Z,1.30
2024-05-09T20:57:57.057Z,0.98
2024-05-09T21:02:59.128Z,1.52
2024-05-09T21:08:01.478Z,1.02
2024-05-09T21:13:07.006Z,1.08
2024-05-09T21:18:09.778Z,1.20
2024-05-09T21:23:11.718Z,1.60
2024-05-09T21:28:16.704Z,1.20
2024-05-09T21:33:18.707Z,1.45
2024-05-09T21:38:20.701Z,1.48
2024-05-09T21:43:27.131Z,1.80
2024-05-09T21:48:28.952Z,1.38
2024-05-09T21:53:30.669Z,0.95
2024-05-09T21:58:35.090Z,1.33
2024-05-09T22:03:36.985Z,1.30
2024-05-09T22:08:38.791Z,1.50
2024-05-09T22:13:43.345Z,0.85
2024-05-09T22:18:45.336Z,1.35
2024-05-09T22:23:47.418Z,1.05
2024-05-09T22:28:52.236Z,1.10
2024-05-09T22:33:54.417Z,0.95
2024-05-09T22:38:56.520Z,1.15
2024-05-09T22:44:02.246Z,1.38
2024-05-09T22:49:04.426Z,1.52
2024-05-09T22:54:08.130Z,1.27
2024-05-09T22:59:12.643Z,1.25
2024-05-09T23:09:16.094Z,1.20
2024-05-09T23:14:20.542Z,1.30
2024-05-09T23:24:23.654Z,1.00
2024-05-09T23:29:28.401Z,1.15
2024-05-09T23:34:30.145Z,1.17
2024-05-09T23:39:32.028Z,1.10
2024-05-09T23:44:36.951Z,1.55
2024-05-09T23:49:38.789Z,1.40
2024-05-09T23:54:40.701Z,1.50
2024-05-09T23:59:45.263Z,1.20
